createdAt,value
2023-03-29T00:04:04.501Z,81.70
2023-03-29T00:09:06.932Z,82.50
2023-03-29T00:14:08.846Z,82.60
2023-03-29T00:19:10.641Z,83.60
2023-03-29T00:24:12.456Z,82.90
2023-03-29T00:29:14.265Z,83.00
2023-03-29T00:34:16.220Z,82.30
2023-03-29T00:39:18.347Z,83.00
2023-03-29T00:44:57.895Z,82.60
2023-03-29T00:50:06.085Z,83.60
2023-03-29T00:55:11.792Z,85.70
2023-03-29T01:00:20.914Z,86.90
2023-03-29T01:05:32.389Z,85.90
2023-03-29T01:11:04.044Z,84.70
2023-03-29T01:16:08.087Z,84.00
2023-03-29T01:21:14.805Z,83.70
2023-03-29T01:26:27.109Z,86.00
2023-03-29T01:31:31.475Z,85.30
2023-03-29T01:36:41.558Z,85.40
2023-03-29T01:41:52.001Z,86.10
2023-03-29T01:47:23.601Z,86.10
2023-03-29T01:52:30.514Z,86.30
2023-03-29T01:57:33.128Z,86.10
2023-03-29T02:02:35.125Z,86.80
2023-03-29T02:07:38.205Z,85.40
2023-03-29T02:12:40.097Z,85.90
2023-03-29T02:17:43.635Z,88.10
2023-03-29T02:22:54.343Z,87.80
2023-03-29T02:27:56.523Z,89.70
2023-03-29T02:33:06.671Z,88.90
2023-03-29T02:38:11.354Z,90.10
2023-03-29T02:43:14.322Z,88.90
2023-03-29T02:48:18.584Z,88.60
2023-03-29T02:53:24.114Z,87.50
2023-03-29T02:58:26.694Z,88.40
2023-03-29T03:03:29.231Z,87.00
2023-03-29T03:08:32.137Z,88.00
2023-03-29T03:13:34.253Z,88.10
2023-03-29T03:18:36.084Z,90.30
2023-03-29T03:23:37.897Z,90.40
2023-03-29T03:28:39.715Z,90.30
2023-03-29T03:33:41.744Z,90.30
2023-03-29T03:38:44.084Z,91.00
2023-03-29T03:43:48.898Z,90.70
2023-03-29T03:48:50.709Z,90.20
2023-03-29T03:53:52.869Z,90.60
2023-03-29T03:58:54.670Z,90.90
2023-03-29T04:03:56.519Z,90.80
2023-03-29T04:08:59.686Z,90.80
2023-03-29T04:14:02.632Z,90.70
2023-03-29T04:19:04.409Z,90.30
2023-03-29T04:24:06.632Z,90.90
2023-03-29T04:29:09.055Z,91.50
2023-03-29T04:34:10.943Z,91.40
2023-03-29T04:39:12.730Z,91.20
2023-03-29T04:44:14.516Z,91.10
2023-03-29T04:55:46.730Z,91.40
2023-03-29T05:00:49.435Z,91.20
2023-03-29T05:05:51.270Z,91.70
2023-03-29T05:10:53.104Z,92.00
2023-03-29T05:15:57.179Z,91.80
2023-03-29T05:21:00.225Z,91.90
2023-03-29T05:26:04.559Z,91.40
2023-03-29T05:31:06.713Z,92.00
2023-03-29T05:36:13.466Z,92.20
2023-03-29T05:41:16.020Z,92.30
2023-03-29T05:46:18.257Z,93.00
2023-03-29T05:51:24.159Z,92.70
2023-03-29T05:56:26.883Z,92.60
2023-03-29T06:01:28.737Z,92.70
2023-03-29T06:06:30.559Z,92.40
2023-03-29T06:11:32.861Z,92.30
2023-03-29T06:16:35.009Z,92.10
2023-03-29T06:21:36.918Z,91.90
2023-03-29T06:26:38.723Z,92.20
2023-03-29T06:31:40.878Z,92.00
2023-03-29T06:36:42.785Z,91.00
2023-03-29T06:41:44.592Z,90.10
2023-03-29T06:46:46.500Z,86.30
2023-03-29T06:51:48.757Z,84.70
2023-03-29T06:56:50.779Z,84.30
2023-03-29T07:01:54.885Z,84.00
2023-03-29T07:07:03.474Z,85.10
2023-03-29T07:12:05.743Z,85.20
2023-03-29T07:17:07.819Z,84.10
2023-03-29T07:22:09.921Z,84.40
2023-03-29T07:27:12.814Z,84.00
2023-03-29T07:32:14.732Z,83.20
2023-03-29T07:37:17.632Z,83.30
2023-03-29T07:42:21.381Z,81.20
2023-03-29T07:47:23.558Z,82.10
2023-03-29T07:52:27.989Z,79.80
2023-03-29T07:57:30.387Z,78.70
2023-03-29T08:02:32.903Z,77.60
2023-03-29T08:07:34.720Z,77.40
2023-03-29T08:12:37.192Z,76.20
2023-03-29T08:17:39.380Z,73.70
2023-03-29T08:22:41.169Z,72.70
2023-03-29T08:27:43.311Z,72.60
2023-03-29T08:32:46.315Z,74.00
2023-03-29T08:37:51.327Z,73.50
2023-03-29T08:42:58.093Z,73.60
2023-03-29T08:48:16.323Z,71.10
2023-03-29T08:53:52.535Z,71.40
2023-03-29T08:58:58.384Z,70.60
2023-03-29T09:04:21.765Z,70.70
2023-03-29T09:09:28.892Z,70.60
2023-03-29T09:14:51.993Z,70.70
2023-03-29T09:19:59.938Z,71.40
2023-03-29T09:25:14.138Z,69.30
2023-03-29T09:30:26.244Z,67.70
2023-03-29T09:35:35.970Z,67.80
2023-03-29T09:41:05.060Z,67.90
2023-03-29T09:46:16.020Z,68.10
2023-03-29T09:51:20.131Z,66.60
2023-03-29T09:56:22.080Z,66.80
2023-03-29T10:01:23.936Z,65.80
2023-03-29T10:06:26.894Z,66.30
2023-03-29T10:11:30.966Z,64.60
2023-03-29T10:16:42.170Z,66.00
2023-03-29T10:21:48.092Z,65.10
2023-03-29T10:32:23.085Z,63.10
2023-03-29T10:37:25.107Z,63.70
2023-03-29T10:42:28.637Z,65.50
2023-03-29T10:47:34.404Z,66.20
2023-03-29T10:52:36.309Z,65.10
2023-03-29T10:58:03.068Z,63.10
2023-03-29T11:03:14.336Z,62.90
2023-03-29T11:08:31.731Z,62.70
2023-03-29T11:13:54.170Z,64.00
2023-03-29T11:19:20.307Z,62.90
2023-03-29T11:24:25.033Z,62.90
2023-03-29T11:29:39.991Z,61.20
2023-03-29T11:35:27.110Z,62.60
2023-03-29T11:40:41.514Z,61.90
2023-03-29T11:46:01.156Z,61.30
2023-03-29T11:51:13.600Z,64.20
2023-03-29T11:56:23.758Z,61.60
2023-03-29T12:01:33.642Z,63.50
2023-03-29T12:06:42.389Z,64.20
2023-03-29T12:11:50.370Z,63.30
2023-03-29T12:17:01.480Z,63.20
2023-03-29T12:22:03.547Z,63.10
2023-03-29T12:27:29.538Z,63.90
2023-03-29T12:32:35.856Z,65.70
2023-03-29T12:37:47.014Z,66.80
2023-03-29T12:42:52.688Z,66.20
2023-03-29T12:47:55.156Z,67.80
2023-03-29T12:53:06.225Z,68.80
2023-03-29T12:58:24.225Z,68.50
2023-03-29T13:03:52.132Z,69.20
2023-03-29T13:09:01.484Z,71.20
2023-03-29T13:14:11.606Z,72.60
2023-03-29T13:19:34.660Z,73.20
2023-03-29T13:24:52.562Z,72.20
2023-03-29T13:30:03.306Z,72.70
2023-03-29T13:35:29.505Z,73.30
2023-03-29T13:40:42.198Z,73.00
2023-03-29T13:45:44.401Z,74.20
2023-03-29T13:50:58.253Z,75.80
2023-03-29T13:57:09.291Z,75.90
2023-03-29T14:02:27.797Z,76.70
2023-03-29T14:07:30.496Z,77.00
2023-03-29T14:12:41.667Z,78.20
2023-03-29T14:17:43.956Z,79.10
2023-03-29T14:22:46.495Z,78.50
2023-03-29T14:27:49.045Z,78.60
2023-03-29T14:32:52.335Z,80.80
2023-03-29T14:37:54.294Z,81.50
2023-03-29T14:42:56.336Z,81.40
2023-03-29T14:47:58.946Z,82.20
2023-03-29T14:53:01.713Z,82.30
2023-03-29T14:58:04.308Z,83.40
2023-03-29T15:03:13.764Z,84.40
2023-03-29T15:08:20.000Z,84.30
2023-03-29T15:13:24.564Z,84.30
2023-03-29T15:18:36.209Z,83.50
2023-03-29T15:23:41.705Z,83.60
2023-03-29T15:28:49.276Z,83.40
2023-03-29T15:34:02.931Z,83.40
2023-03-29T15:39:04.804Z,83.70
2023-03-29T15:44:07.174Z,85.80
2023-03-29T15:49:12.782Z,86.80
2023-03-29T15:54:14.564Z,87.60
2023-03-29T15:59:18.008Z,88.60
2023-03-29T16:04:21.171Z,89.40
2023-03-29T16:09:23.852Z,89.80
2023-03-29T16:14:31.356Z,90.30
2023-03-29T16:19:33.845Z,90.70
2023-03-29T16:24:36.446Z,90.50
2023-03-29T16:29:38.338Z,91.00
2023-03-29T16:34:41.428Z,91.00
2023-03-29T16:39:43.533Z,91.20
2023-03-29T16:44:45.588Z,91.20
2023-03-29T16:49:48.657Z,91.50
2023-03-29T16:54:50.837Z,91.90
2023-03-29T16:59:52.794Z,92.00
2023-03-29T17:04:54.818Z,92.20
2023-03-29T17:09:56.942Z,92.20
2023-03-29T17:14:59.151Z,92.30
2023-03-29T17:20:01.031Z,92.50
2023-03-29T17:25:06.236Z,92.40
2023-03-29T17:30:08.828Z,92.60
2023-03-29T17:35:11.116Z,92.60
2023-03-29T17:40:15.751Z,92.70
2023-03-29T17:45:21.905Z,92.80
2023-03-29T17:50:25.137Z,93.00
2023-03-29T17:55:27.461Z,93.20
2023-03-29T18:00:29.407Z,93.20
2023-03-29T18:05:31.374Z,93.30
2023-03-29T18:10:33.428Z,93.60
2023-03-29T18:15:35.612Z,93.90
2023-03-29T18:20:37.413Z,94.00
2023-03-29T18:25:39.270Z,94.30
2023-03-29T18:30:41.207Z,94.50
2023-03-29T18:35:48.484Z,94.60
2023-03-29T18:40:50.745Z,94.60
2023-03-29T18:45:52.656Z,94.50
2023-03-29T18:50:57.834Z,94.50
2023-03-29T18:56:01.082Z,94.00
2023-03-29T19:01:05.154Z,93.80
2023-03-29T19:06:08.502Z,93.60
2023-03-29T19:11:14.173Z,93.40
2023-03-29T19:16:16.471Z,93.20
2023-03-29T19:21:18.382Z,93.20
2023-03-29T19:26:20.280Z,93.40
2023-03-29T19:31:22.606Z,93.50
2023-03-29T19:36:24.506Z,93.30
2023-03-29T19:41:26.783Z,93.40
2023-03-29T19:46:29.226Z,93.40
2023-03-29T19:51:31.474Z,93.80
2023-03-29T19:56:34.834Z,93.90
2023-03-29T20:01:39.519Z,94.30
2023-03-29T20:06:41.654Z,94.10
2023-03-29T20:11:49.711Z,94.50
2023-03-29T20:16:54.143Z,94.90
2023-03-29T20:21:57.587Z,95.00
2023-03-29T20:26:59.669Z,95.20
2023-03-29T20:32:02.666Z,95.30
2023-03-29T20:37:04.648Z,95.10
2023-03-29T20:42:06.794Z,95.30
2023-03-29T20:47:14.128Z,95.30
2023-03-29T20:52:17.221Z,95.80
2023-03-29T20:57:20.875Z,95.60
2023-03-29T21:02:23.302Z,96.00
2023-03-29T21:07:25.179Z,96.20
2023-03-29T21:12:27.428Z,96.60
2023-03-29T21:17:29.602Z,96.70
2023-03-29T21:22:33.064Z,96.80
2023-03-29T21:27:37.182Z,96.90
2023-03-29T21:32:40.474Z,97.10
2023-03-29T21:37:42.401Z,97.10
2023-03-29T21:42:44.427Z,96.90
2023-03-29T21:47:46.320Z,96.30
2023-03-29T21:52:48.686Z,95.70
2023-03-29T21:57:50.681Z,95.40
2023-03-29T22:02:52.609Z,94.10
2023-03-29T22:07:54.537Z,93.40
2023-03-29T22:12:57.100Z,93.70
2023-03-29T22:18:00.305Z,94.00
2023-03-29T22:23:03.192Z,94.00
2023-03-29T22:28:05.045Z,94.10
2023-03-29T22:33:07.122Z,94.00
2023-03-29T22:38:09.007Z,94.00
2023-03-29T22:43:11.047Z,93.90
2023-03-29T22:48:12.932Z,94.30
2023-03-29T22:53:14.911Z,94.50
2023-03-29T22:58:16.792Z,94.60
2023-03-29T23:03:18.838Z,94.60
2023-03-29T23:08:21.521Z,94.30
2023-03-29T23:13:28.815Z,94.00
2023-03-29T23:18:34.910Z,93.80
2023-03-29T23:23:36.999Z,93.80
2023-03-29T23:28:38.909Z,93.80
2023-03-29T23:33:42.754Z,93.90
2023-03-29T23:38:46.272Z,93.80
2023-03-29T23:43:50.176Z,93.90
2023-03-29T23:48:52.330Z,93.80
2023-03-29T23:53:55.364Z,94.00
2023-03-29T23:58:57.257Z,93.90
